METAR Espana - 19 Feb 2018 - 0148 UTC - RocketRoute WX - rrwx.com
LEAL 190130Z 27003KT 9999 FEW050 SCT059 09/08 Q1018 NOSIG LEAM 190130Z AUTO VRB02KT 9999 BKN031/// OVC045/// 14/11 Q1018 LEAS 190130Z AUTO 26004KT 6000 FEW013/// SCT035/// BKN076/// 09/08 Q1024 LEBZ   LEBL 190130Z 33006KT 9999 FEW040 08/04 Q1017 NOSIG LEBB 190130Z AUTO 28003KT 230V320 9999 RA FEW009/// BKN013/// 11/10 Q1022 LEGR 190130Z AUTO 00000KT 9999 BKN057 OVC070 08/06 Q1017 LEIB   LEJR 190130Z AUTO 00000KT CAVOK 09/07 Q1018 LELN   LEMD 190130Z 03001KT 9999 FEW070 08/03 Q1020 NOSIG LEMG 190130Z 33003KT 290V010 4000 -RA BR BKN018 BKN026 12/11 Q1018 NOSIG LEMH 190130Z AUTO 34003KT CAVOK 07/05 Q1018 LELC   LEPA 190130Z 05001KT 9999 FEW020 05/04 Q1018 NOSIG LERS 190130Z AUTO 32005KT 9999 NCD 10/05 Q1017 LEXJ 190130Z AUTO 28007KT 6000 -RA SCT009/// BKN015/// BKN025/// 11/10 Q1023 LEST 190130Z 07003KT 9000 FEW005 08/07 Q1024 NOSIG LEZL 190130Z AUTO VRB01KT 7000 NCD 08/07 Q1018 LEVC 190130Z 32004KT CAVOK 08/07 Q1018 NOSIG LEVD   LEVT 190130Z 30007KT 9999 SCT015 BKN035 07/06 Q1021 LEZG 190130Z 28014KT 9999 FEW040 SCT085 10/06 Q1019 GCLP 190130Z 36009KT 9999 FEW030 15/09 Q1018 NOSIG GCRR 190100Z 04004KT 9999 SCT025 15/10 Q1018 GCXO 190130Z AUTO 31010KT 280V340 9999 BKN013/// OVC021/// 11/09 Q1019 GCTS 190130Z 06004KT 9999 SCT033 16/09 Q1018 NOSIG

RocketRoute WX - rrwx.com weather for pilots